createdAt,value
2023-02-12T00:01:15.704Z,75.89
2023-02-12T00:03:43.301Z,75.46
2023-02-12T00:06:13.566Z,75.19
2023-02-12T00:08:42.997Z,75.72
2023-02-12T00:11:18.733Z,75.66
2023-02-12T00:13:46.443Z,76.04
2023-02-12T00:16:17.290Z,76.27
2023-02-12T00:18:45.198Z,76.83
2023-02-12T00:21:14.051Z,77.10
2023-02-12T00:23:41.695Z,78.19
2023-02-12T00:26:11.994Z,77.13
2023-02-12T00:28:44.289Z,76.74
2023-02-12T00:31:21.501Z,75.61
2023-02-12T00:33:49.124Z,75.60
2023-02-12T00:36:21.906Z,75.64
2023-02-12T00:38:51.418Z,76.30
2023-02-12T00:41:19.283Z,77.38
2023-02-12T00:43:47.352Z,76.50
2023-02-12T00:46:15.301Z,76.56
2023-02-12T00:48:44.419Z,77.11
2023-02-12T00:51:11.799Z,77.53
2023-02-12T00:53:39.245Z,77.66
2023-02-12T00:56:08.420Z,78.84
2023-02-12T00:58:35.773Z,77.45
2023-02-12T01:01:03.487Z,78.19
2023-02-12T01:03:30.798Z,78.36
2023-02-12T01:05:59.982Z,79.08
2023-02-12T01:08:27.525Z,79.52
2023-02-12T01:11:03.804Z,78.78
2023-02-12T01:13:32.370Z,78.46
2023-02-12T01:16:09.008Z,78.56
2023-02-12T01:18:38.018Z,78.00
2023-02-12T01:21:15.651Z,77.89
2023-02-12T01:23:44.264Z,78.51
2023-02-12T01:26:12.596Z,78.88
2023-02-12T01:28:42.261Z,79.99
2023-02-12T01:31:16.086Z,79.01
2023-02-12T01:33:44.077Z,78.43
2023-02-12T01:36:11.524Z,77.84
2023-02-12T01:38:38.843Z,77.65
2023-02-12T01:41:27.688Z,78.95
2023-02-12T01:44:08.528Z,79.01
2023-02-12T01:46:36.386Z,79.24
2023-02-12T01:49:07.670Z,79.41
2023-02-12T01:51:38.114Z,79.09
2023-02-12T01:54:08.320Z,80.27
2023-02-12T01:56:36.192Z,80.88
2023-02-12T01:59:03.918Z,80.00
2023-02-12T02:01:33.678Z,79.05
2023-02-12T02:04:05.301Z,78.75
2023-02-12T02:06:36.076Z,78.69
2023-02-12T02:09:06.185Z,78.98
2023-02-12T02:11:52.032Z,78.35
2023-02-12T02:14:34.580Z,77.74
2023-02-12T02:17:31.796Z,78.59
2023-02-12T02:20:20.956Z,78.39
2023-02-12T02:23:20.213Z,78.37
2023-02-12T02:25:56.697Z,78.46
2023-02-12T02:28:42.630Z,78.47
2023-02-12T02:31:24.214Z,77.84
2023-02-12T02:33:57.072Z,77.82
2023-02-12T02:36:59.719Z,77.39
2023-02-12T02:39:58.379Z,77.36
2023-02-12T02:42:37.303Z,77.55
2023-02-12T02:45:31.501Z,77.63
2023-02-12T02:48:32.353Z,76.87
2023-02-12T02:51:10.478Z,77.74
2023-02-12T02:54:01.621Z,77.76
2023-02-12T02:56:30.646Z,77.38
2023-02-12T02:59:11.916Z,77.63
2023-02-12T03:01:59.159Z,78.72
2023-02-12T03:04:35.444Z,79.39
2023-02-12T03:07:19.358Z,77.92
2023-02-12T03:09:56.741Z,78.08
2023-02-12T03:12:32.762Z,78.55
2023-02-12T03:15:31.651Z,77.63
2023-02-12T03:18:01.407Z,77.60
2023-02-12T03:20:36.188Z,77.95
2023-02-12T03:23:10.232Z,78.08
2023-02-12T03:25:49.904Z,77.96
2023-02-12T03:28:29.184Z,77.87
2023-02-12T03:31:01.231Z,78.62
2023-02-12T03:33:45.786Z,78.48
2023-02-12T03:36:55.218Z,78.12
2023-02-12T03:39:44.448Z,78.31
2023-02-12T03:42:25.554Z,79.21
2023-02-12T03:44:54.555Z,78.46
2023-02-12T03:47:36.551Z,78.13
2023-02-12T03:50:10.681Z,77.61
2023-02-12T03:52:38.220Z,79.02
2023-02-12T03:55:06.330Z,80.42
2023-02-12T03:57:40.814Z,80.95
2023-02-12T04:00:18.728Z,81.21
2023-02-12T04:02:48.817Z,81.58
2023-02-12T04:05:19.173Z,81.17
2023-02-12T04:07:46.969Z,81.66
2023-02-12T04:10:14.961Z,81.03
2023-02-12T04:13:04.261Z,81.20
2023-02-12T04:15:40.855Z,82.05
2023-02-12T04:18:25.021Z,82.12
2023-02-12T04:21:02.307Z,83.14
2023-02-12T04:23:47.333Z,83.35
2023-02-12T04:26:22.234Z,83.18
2023-02-12T04:29:11.831Z,82.06
2023-02-12T04:32:06.525Z,82.48
2023-02-12T04:34:50.637Z,82.79
2023-02-12T04:37:35.573Z,82.51
2023-02-12T04:40:09.935Z,83.32
2023-02-12T04:42:48.982Z,83.45
2023-02-12T04:45:22.639Z,83.02
2023-02-12T04:47:50.005Z,83.14
2023-02-12T04:50:17.769Z,82.77
2023-02-12T04:52:45.445Z,83.69
2023-02-12T04:55:13.163Z,84.08
2023-02-12T04:57:40.510Z,83.89
2023-02-12T05:00:12.916Z,83.98
2023-02-12T05:02:40.602Z,84.12
2023-02-12T05:05:08.506Z,83.40
2023-02-12T05:07:35.990Z,83.83
2023-02-12T05:10:03.905Z,83.84
2023-02-12T05:12:31.307Z,84.21
2023-02-12T05:14:58.722Z,84.97
2023-02-12T05:17:26.170Z,84.25
2023-02-12T05:19:53.484Z,84.80
2023-02-12T05:22:20.859Z,85.92
2023-02-12T05:24:48.333Z,85.97
2023-02-12T05:27:15.707Z,86.32
2023-02-12T05:29:43.142Z,86.31
2023-02-12T05:32:10.548Z,85.89
2023-02-12T05:34:37.945Z,86.48
2023-02-12T05:37:05.312Z,85.78
2023-02-12T05:39:32.667Z,86.77
2023-02-12T05:41:59.954Z,86.69
2023-02-12T05:44:27.298Z,86.45
2023-02-12T05:46:54.619Z,86.53
2023-02-12T05:49:21.950Z,86.75
2023-02-12T05:51:49.991Z,86.36
2023-02-12T05:54:17.407Z,86.44
2023-02-12T05:56:47.362Z,86.57
2023-02-12T05:59:22.969Z,87.73
2023-02-12T06:01:51.883Z,88.02
2023-02-12T06:04:23.728Z,88.34
2023-02-12T06:06:52.856Z,88.52
2023-02-12T06:09:20.304Z,88.41
2023-02-12T06:11:47.619Z,89.24
2023-02-12T06:14:18.884Z,88.97
2023-02-12T06:16:48.639Z,89.11
2023-02-12T06:19:17.214Z,89.32
2023-02-12T06:21:44.565Z,89.12
2023-02-12T06:24:13.796Z,88.25
2023-02-12T06:26:41.561Z,88.63
2023-02-12T06:29:09.516Z,88.52
2023-02-12T06:31:37.601Z,88.48
2023-02-12T06:34:08.054Z,88.25
2023-02-12T06:36:38.069Z,88.63
2023-02-12T06:39:06.245Z,89.26
2023-02-12T06:41:34.038Z,89.33
2023-02-12T06:44:01.392Z,88.75
2023-02-12T06:46:29.594Z,89.28
2023-02-12T06:48:58.981Z,89.21
2023-02-12T06:51:27.562Z,88.17
2023-02-12T06:53:55.991Z,85.38
2023-02-12T06:56:24.762Z,81.42
2023-02-12T06:58:55.097Z,78.53
2023-02-12T07:01:25.397Z,77.16
2023-02-12T07:03:58.279Z,75.00
2023-02-12T07:06:27.052Z,74.80
2023-02-12T07:08:55.430Z,74.29
2023-02-12T07:11:25.199Z,73.81
2023-02-12T07:13:53.025Z,72.89
2023-02-12T07:16:20.859Z,69.72
2023-02-12T07:18:48.600Z,69.73
2023-02-12T07:21:17.295Z,70.73
2023-02-12T07:23:51.456Z,71.85
2023-02-12T07:26:21.243Z,68.79
2023-02-12T07:28:49.722Z,66.39
2023-02-12T07:31:23.470Z,61.47
2023-02-12T07:33:55.693Z,60.12
2023-02-12T07:36:24.324Z,59.40
2023-02-12T07:38:51.706Z,60.15
2023-02-12T07:41:22.402Z,60.50
2023-02-12T07:43:55.714Z,59.75
2023-02-12T07:46:37.394Z,57.66
2023-02-12T07:49:06.991Z,54.35
2023-02-12T07:51:35.526Z,53.45
2023-02-12T07:54:04.000Z,51.87
2023-02-12T07:56:35.255Z,50.85
2023-02-12T07:59:08.345Z,50.27
2023-02-12T08:01:38.308Z,51.03
2023-02-12T08:04:11.520Z,49.06
2023-02-12T08:06:41.587Z,47.05
2023-02-12T08:09:12.252Z,45.75
2023-02-12T08:11:40.996Z,44.43
2023-02-12T08:14:10.726Z,45.38
2023-02-12T08:16:40.012Z,43.60
2023-02-12T08:19:18.727Z,45.69
2023-02-12T08:21:54.898Z,44.08
2023-02-12T08:24:23.063Z,41.88
2023-02-12T08:26:51.399Z,41.56
2023-02-12T08:29:22.029Z,39.60
2023-02-12T08:31:51.121Z,41.25
2023-02-12T08:34:27.408Z,40.05
2023-02-12T08:36:56.600Z,38.36
2023-02-12T08:39:26.196Z,36.88
2023-02-12T08:42:00.004Z,35.50
2023-02-12T08:44:27.697Z,34.97
2023-02-12T08:46:58.246Z,33.94
2023-02-12T08:49:29.624Z,34.66
2023-02-12T08:51:59.148Z,33.96
2023-02-12T08:54:28.707Z,33.25
2023-02-12T08:56:58.151Z,33.63
2023-02-12T08:59:25.809Z,33.39
2023-02-12T09:01:54.447Z,33.05
2023-02-12T09:04:25.445Z,32.75
2023-02-12T09:06:53.148Z,33.24
2023-02-12T09:09:21.436Z,33.58
2023-02-12T09:11:49.698Z,32.47
2023-02-12T09:14:18.973Z,32.39
2023-02-12T09:16:46.379Z,31.47
2023-02-12T09:19:14.611Z,30.57
2023-02-12T09:21:42.220Z,31.01
2023-02-12T09:24:09.917Z,30.67
2023-02-12T09:26:39.214Z,29.47
2023-02-12T09:29:06.677Z,29.83
2023-02-12T09:31:34.205Z,30.00
2023-02-12T09:34:05.234Z,30.36
2023-02-12T09:36:33.635Z,30.16
2023-02-12T09:39:01.155Z,29.19
2023-02-12T09:41:46.998Z,29.40
2023-02-12T09:44:32.431Z,29.39
2023-02-12T09:47:03.671Z,29.22
2023-02-12T09:50:13.634Z,28.45
2023-02-12T09:52:41.698Z,28.71
2023-02-12T09:55:15.529Z,29.23
2023-02-12T09:57:44.310Z,28.96
2023-02-12T10:00:15.825Z,29.20
2023-02-12T10:02:43.141Z,30.71
2023-02-12T10:05:20.263Z,29.91
2023-02-12T10:08:08.456Z,30.68
2023-02-12T10:10:48.094Z,31.11
2023-02-12T10:13:15.576Z,31.38
2023-02-12T10:15:53.834Z,30.90
2023-02-12T10:18:42.558Z,33.13
2023-02-12T10:21:15.920Z,33.05
2023-02-12T10:24:08.555Z,34.56
2023-02-12T10:26:41.243Z,34.62
2023-02-12T10:29:14.780Z,34.77
2023-02-12T10:31:47.199Z,35.03
2023-02-12T10:34:32.527Z,34.11
2023-02-12T10:37:21.321Z,34.45
2023-02-12T10:39:52.252Z,34.26
2023-02-12T10:42:44.867Z,34.66
2023-02-12T10:45:18.268Z,34.55
2023-02-12T10:47:50.503Z,35.83
2023-02-12T10:50:53.030Z,36.04
2023-02-12T10:53:29.657Z,36.23
2023-02-12T10:56:27.400Z,35.89
2023-02-12T10:58:59.347Z,33.94
2023-02-12T11:01:39.421Z,36.13
2023-02-12T11:04:21.687Z,36.93
2023-02-12T11:07:00.846Z,35.52
2023-02-12T11:09:45.638Z,36.37
2023-02-12T11:12:36.788Z,34.41
2023-02-12T11:15:25.579Z,35.74
2023-02-12T11:17:59.085Z,35.64
2023-02-12T11:20:42.126Z,33.55
2023-02-12T11:23:33.952Z,32.52
2023-02-12T11:26:05.913Z,32.02
2023-02-12T11:28:35.089Z,32.94
2023-02-12T11:31:20.188Z,32.77
2023-02-12T11:33:58.797Z,33.34
2023-02-12T11:36:27.607Z,33.90
2023-02-12T11:38:58.337Z,33.98
2023-02-12T11:41:37.994Z,36.32
2023-02-12T11:44:28.730Z,35.78
2023-02-12T11:47:02.199Z,35.68
2023-02-12T11:49:39.005Z,37.23
2023-02-12T11:52:07.638Z,38.00
2023-02-12T11:54:41.912Z,37.54
2023-02-12T11:57:43.775Z,36.60
2023-02-12T12:00:19.731Z,36.41
2023-02-12T12:03:28.414Z,36.76
2023-02-12T12:06:28.288Z,35.85
2023-02-12T12:09:01.857Z,35.93
2023-02-12T12:11:37.154Z,36.27
2023-02-12T12:15:04.120Z,36.42
2023-02-12T12:18:38.665Z,36.34
2023-02-12T12:21:29.437Z,35.65
2023-02-12T12:24:04.237Z,36.23
2023-02-12T12:26:34.559Z,36.39
2023-02-12T12:29:23.225Z,36.07
2023-02-12T12:32:01.537Z,36.73
2023-02-12T12:34:32.446Z,37.35
2023-02-12T12:37:28.888Z,36.76
2023-02-12T12:39:59.103Z,36.70
2023-02-12T12:42:47.888Z,37.44
2023-02-12T12:45:39.374Z,39.33
2023-02-12T12:48:09.504Z,37.75
2023-02-12T12:51:01.545Z,38.09
2023-02-12T12:53:50.506Z,38.72
2023-02-12T12:56:20.482Z,39.61
2023-02-12T12:59:18.739Z,38.31
2023-02-12T13:02:10.195Z,38.54
2023-02-12T13:04:52.695Z,39.12
2023-02-12T13:07:32.713Z,38.85
2023-02-12T13:10:10.891Z,39.13
2023-02-12T13:12:51.137Z,38.40
2023-02-12T13:15:46.183Z,37.86
2023-02-12T13:18:28.428Z,36.94
2023-02-12T13:20:58.771Z,35.46
2023-02-12T13:23:50.605Z,35.04
2023-02-12T13:26:36.754Z,32.22
2023-02-12T13:29:18.611Z,30.75
2023-02-12T13:32:01.616Z,29.88
2023-02-12T13:34:31.467Z,29.66
2023-02-12T13:37:03.048Z,30.05
2023-02-12T13:39:39.540Z,28.99
2023-02-12T13:42:12.564Z,29.06
2023-02-12T13:45:01.876Z,29.04
2023-02-12T13:47:41.528Z,28.68
2023-02-12T13:50:32.813Z,28.38
2023-02-12T13:53:21.247Z,27.56
2023-02-12T13:56:02.087Z,28.01
2023-02-12T13:58:35.269Z,27.84
2023-02-12T14:01:08.554Z,27.15
2023-02-12T14:03:38.129Z,26.12
2023-02-12T14:06:10.269Z,25.76
2023-02-12T14:08:40.685Z,26.40
2023-02-12T14:11:12.232Z,25.99
2023-02-12T14:14:00.205Z,26.36
2023-02-12T14:16:30.223Z,27.02
2023-02-12T14:19:35.122Z,27.28
2023-02-12T14:22:28.714Z,28.28
2023-02-12T14:24:57.837Z,28.45
2023-02-12T14:27:48.722Z,28.76
2023-02-12T14:30:25.838Z,28.96
2023-02-12T14:32:58.109Z,29.11
2023-02-12T14:35:40.676Z,30.03
2023-02-12T14:38:20.039Z,30.38
2023-02-12T14:40:52.580Z,30.58
2023-02-12T14:43:55.700Z,31.04
2023-02-12T14:46:23.074Z,31.16
2023-02-12T14:48:56.398Z,31.53
2023-02-12T14:51:36.949Z,31.47
2023-02-12T14:54:13.694Z,32.21
2023-02-12T14:56:47.621Z,32.27
2023-02-12T14:59:25.560Z,32.64
2023-02-12T15:01:54.612Z,33.01
2023-02-12T15:04:27.662Z,33.55
2023-02-12T15:07:08.356Z,33.50
2023-02-12T15:09:52.663Z,33.83
2023-02-12T15:12:26.638Z,34.00
2023-02-12T15:15:11.212Z,34.62
2023-02-12T15:17:41.891Z,34.76
2023-02-12T15:20:23.789Z,34.51
2023-02-12T15:22:51.224Z,34.88
2023-02-12T15:25:27.244Z,35.20
2023-02-12T15:28:00.817Z,35.36
2023-02-12T15:30:32.418Z,35.45
2023-02-12T15:33:03.640Z,35.37
2023-02-12T15:35:36.830Z,35.67
2023-02-12T15:38:08.078Z,36.36
2023-02-12T15:40:35.528Z,37.00
2023-02-12T15:43:16.773Z,36.84
2023-02-12T15:45:51.570Z,36.56
2023-02-12T15:48:23.767Z,37.25
2023-02-12T15:51:18.045Z,37.60
2023-02-12T15:53:48.896Z,37.34
2023-02-12T15:56:22.921Z,37.78
2023-02-12T15:58:53.312Z,37.62
2023-02-12T16:01:24.033Z,37.63
2023-02-12T16:03:56.807Z,37.76
2023-02-12T16:06:27.012Z,38.21
2023-02-12T16:09:06.780Z,38.52
2023-02-12T16:11:35.524Z,38.70
2023-02-12T16:14:07.633Z,39.35
2023-02-12T16:16:45.296Z,39.40
2023-02-12T16:19:32.932Z,39.82
2023-02-12T16:22:09.390Z,39.92
2023-02-12T16:24:49.489Z,40.45
2023-02-12T16:27:20.476Z,40.58
2023-02-12T16:29:53.964Z,40.81
2023-02-12T16:32:27.389Z,40.85
2023-02-12T16:35:04.876Z,41.04
2023-02-12T16:37:38.410Z,41.50
2023-02-12T16:40:12.064Z,41.71
2023-02-12T16:42:55.400Z,41.85
2023-02-12T16:45:28.802Z,42.18
2023-02-12T16:48:09.756Z,43.06
2023-02-12T16:50:45.022Z,42.95
2023-02-12T16:53:33.550Z,43.63
2023-02-12T16:56:02.695Z,43.58
2023-02-12T16:58:30.016Z,43.54
2023-02-12T17:00:59.417Z,43.85
2023-02-12T17:03:29.617Z,44.17
2023-02-12T17:05:57.383Z,44.37
2023-02-12T17:08:25.072Z,44.19
2023-02-12T17:10:55.445Z,44.68
2023-02-12T17:13:22.804Z,44.39
2023-02-12T17:15:56.307Z,44.36
2023-02-12T17:18:24.621Z,44.52
2023-02-12T17:20:56.859Z,44.79
2023-02-12T17:23:25.014Z,44.89
2023-02-12T17:25:54.001Z,45.91
2023-02-12T17:28:22.913Z,45.13
2023-02-12T17:30:50.518Z,45.20
2023-02-12T17:33:18.930Z,45.31
2023-02-12T17:35:46.557Z,45.16
2023-02-12T17:38:13.957Z,45.69
2023-02-12T17:40:41.284Z,45.32
2023-02-12T17:43:08.712Z,45.12
2023-02-12T17:45:40.438Z,45.59
2023-02-12T17:48:08.012Z,46.32
2023-02-12T17:50:35.423Z,46.49
2023-02-12T17:53:02.810Z,46.60
2023-02-12T17:55:31.402Z,47.19
2023-02-12T17:57:58.872Z,46.20
2023-02-12T18:00:26.305Z,46.10
2023-02-12T18:02:54.693Z,46.91
2023-02-12T18:05:22.089Z,47.09
2023-02-12T18:07:49.500Z,47.67
2023-02-12T18:10:16.959Z,47.58
2023-02-12T18:12:44.288Z,47.90
2023-02-12T18:15:11.868Z,47.76
2023-02-12T18:17:42.104Z,48.07
2023-02-12T18:20:11.632Z,47.21
2023-02-12T18:22:38.972Z,47.63
2023-02-12T18:25:06.832Z,48.46
2023-02-12T18:27:34.738Z,48.03
2023-02-12T18:30:02.613Z,48.16
2023-02-12T18:32:30.085Z,48.08
2023-02-12T18:34:57.384Z,48.97
2023-02-12T18:37:24.687Z,49.08
2023-02-12T18:39:52.114Z,49.10
2023-02-12T18:42:19.470Z,48.75
2023-02-12T18:44:46.868Z,48.67
2023-02-12T18:47:14.209Z,48.30
2023-02-12T18:49:41.549Z,48.40
2023-02-12T18:52:09.118Z,48.04
2023-02-12T18:54:36.504Z,48.28
2023-02-12T18:57:03.962Z,48.76
2023-02-12T18:59:31.576Z,48.89
2023-02-12T19:01:58.958Z,49.14
2023-02-12T19:04:27.842Z,48.77
2023-02-12T19:06:58.053Z,48.40
2023-02-12T19:09:26.956Z,48.81
2023-02-12T19:11:56.953Z,48.98
2023-02-12T19:14:26.667Z,49.32
2023-02-12T19:16:53.972Z,49.22
2023-02-12T19:19:24.765Z,49.40
2023-02-12T19:21:52.404Z,49.09
2023-02-12T19:24:20.222Z,49.38
2023-02-12T19:26:51.762Z,49.39
2023-02-12T19:29:19.117Z,49.89
2023-02-12T19:31:47.188Z,50.54
2023-02-12T19:34:19.620Z,50.53
2023-02-12T19:36:48.607Z,50.46
2023-02-12T19:39:22.042Z,50.21
2023-02-12T19:41:49.989Z,50.45
2023-02-12T19:44:26.117Z,50.41
2023-02-12T19:46:53.600Z,50.99
2023-02-12T19:49:24.137Z,51.00
2023-02-12T19:51:51.869Z,52.09
2023-02-12T19:54:21.536Z,52.25
2023-02-12T19:56:49.839Z,52.32
2023-02-12T19:59:20.541Z,51.70
2023-02-12T20:01:48.634Z,52.06
2023-02-12T20:04:19.710Z,52.01
2023-02-12T20:06:49.086Z,51.82
2023-02-12T20:09:19.108Z,51.67
2023-02-12T20:11:46.558Z,51.64
2023-02-12T20:14:14.604Z,50.90
2023-02-12T20:16:44.800Z,51.08
2023-02-12T20:19:19.704Z,52.52
2023-02-12T20:21:53.225Z,53.27
2023-02-12T20:24:32.512Z,54.04
2023-02-12T20:27:03.036Z,54.20
2023-02-12T20:29:30.616Z,53.71
2023-02-12T20:31:58.146Z,54.34
2023-02-12T20:34:25.737Z,53.89
2023-02-12T20:36:53.986Z,54.14
2023-02-12T20:39:22.325Z,54.26
2023-02-12T20:41:50.278Z,54.17
2023-02-12T20:44:21.090Z,54.17
2023-02-12T20:46:54.388Z,54.59
2023-02-12T20:49:25.291Z,53.82
2023-02-12T20:51:53.104Z,53.88
2023-02-12T20:54:21.054Z,53.54
2023-02-12T20:56:50.575Z,53.96
2023-02-12T20:59:21.816Z,53.57
2023-02-12T21:01:50.410Z,53.98
2023-02-12T21:04:19.193Z,54.10
2023-02-12T21:06:48.345Z,54.42
2023-02-12T21:09:16.721Z,54.27
2023-02-12T21:11:45.903Z,55.02
2023-02-12T21:14:23.682Z,54.08
2023-02-12T21:16:55.879Z,54.78
2023-02-12T21:19:24.933Z,54.97
2023-02-12T21:21:55.747Z,54.84
2023-02-12T21:24:25.314Z,55.71
2023-02-12T21:26:56.394Z,56.60
2023-02-12T21:29:26.044Z,56.13
2023-02-12T21:31:55.627Z,56.32
2023-02-12T21:34:23.781Z,57.57
2023-02-12T21:36:53.974Z,57.65
2023-02-12T21:39:24.879Z,57.68
2023-02-12T21:41:58.170Z,57.46
2023-02-12T21:44:26.163Z,56.71
2023-02-12T21:46:54.319Z,57.08
2023-02-12T21:49:25.187Z,56.98
2023-02-12T21:51:55.128Z,57.34
2023-02-12T21:54:23.200Z,56.72
2023-02-12T21:56:51.273Z,57.56
2023-02-12T21:59:19.049Z,57.39
2023-02-12T22:01:49.425Z,56.87
2023-02-12T22:04:18.165Z,56.83
2023-02-12T22:06:49.450Z,57.20
2023-02-12T22:09:19.238Z,56.62
2023-02-12T22:11:46.964Z,56.91
2023-02-12T22:14:16.700Z,57.16
2023-02-12T22:16:44.671Z,56.71
2023-02-12T22:19:12.287Z,56.69
2023-02-12T22:21:41.094Z,57.03
2023-02-12T22:24:11.519Z,57.33
2023-02-12T22:26:38.877Z,56.46
2023-02-12T22:29:08.748Z,56.72
2023-02-12T22:31:38.766Z,57.24
2023-02-12T22:34:10.330Z,57.20
2023-02-12T22:36:38.563Z,57.12
2023-02-12T22:39:06.533Z,57.05
2023-02-12T22:41:34.417Z,57.33
2023-02-12T22:44:05.036Z,57.64
2023-02-12T22:46:33.322Z,57.57
2023-02-12T22:49:00.910Z,57.35
2023-02-12T22:51:31.124Z,57.27
2023-02-12T22:53:58.883Z,57.47
2023-02-12T22:56:26.610Z,57.51
2023-02-12T22:58:58.397Z,57.81
2023-02-12T23:01:27.012Z,58.15
2023-02-12T23:03:55.300Z,58.50
2023-02-12T23:06:25.929Z,58.20
2023-02-12T23:08:56.743Z,57.79
2023-02-12T23:11:24.790Z,58.37
2023-02-12T23:13:52.654Z,58.16
2023-02-12T23:16:23.291Z,57.98
2023-02-12T23:18:57.936Z,58.07
2023-02-12T23:21:26.579Z,58.43
2023-02-12T23:23:54.368Z,58.01
2023-02-12T23:26:22.384Z,58.50
2023-02-12T23:28:49.688Z,58.57
2023-02-12T23:31:17.342Z,57.97
2023-02-12T23:33:45.438Z,58.19
2023-02-12T23:36:12.897Z,57.82
2023-02-12T23:38:40.189Z,58.21
2023-02-12T23:41:07.656Z,58.07
2023-02-12T23:43:34.944Z,57.92
2023-02-12T23:46:02.680Z,58.60
2023-02-12T23:48:29.998Z,58.91
2023-02-12T23:50:57.602Z,58.74
2023-02-12T23:53:27.025Z,59.67
2023-02-12T23:55:54.369Z,60.33
2023-02-12T23:58:21.649Z,59.69
